createdAt,value
2023-03-15T00:02:22.537Z,1.70
2023-03-15T00:04:52.590Z,2.30
2023-03-15T00:07:25.932Z,1.80
2023-03-15T00:09:55.071Z,1.70
2023-03-15T00:12:23.330Z,1.80
2023-03-15T00:14:51.917Z,1.60
2023-03-15T00:17:20.187Z,1.70
2023-03-15T00:19:49.174Z,1.80
2023-03-15T00:22:17.350Z,1.50
2023-03-15T00:24:45.726Z,1.50
2023-03-15T00:27:14.105Z,1.50
2023-03-15T00:29:42.277Z,2.00
2023-03-15T00:32:11.063Z,1.50
2023-03-15T00:34:41.078Z,1.20
2023-03-15T00:37:09.251Z,1.50
2023-03-15T00:39:39.888Z,1.50
2023-03-15T00:42:09.838Z,1.30
2023-03-15T00:44:37.974Z,1.30
2023-03-15T00:47:06.245Z,1.20
2023-03-15T00:49:34.522Z,1.60
2023-03-15T00:52:04.019Z,1.60
2023-03-15T00:54:33.720Z,1.60
2023-03-15T00:57:02.107Z,1.90
2023-03-15T00:59:35.106Z,1.40
2023-03-15T01:02:04.632Z,1.40
2023-03-15T01:04:32.975Z,1.80
2023-03-15T01:07:01.142Z,1.20
2023-03-15T01:09:31.668Z,1.40
2023-03-15T01:12:00.147Z,1.60
2023-03-15T01:14:28.525Z,1.30
2023-03-15T01:16:56.701Z,1.30
2023-03-15T01:19:25.071Z,1.20
2023-03-15T01:21:54.682Z,1.70
2023-03-15T01:24:22.956Z,1.40
2023-03-15T01:26:51.851Z,1.80
2023-03-15T01:29:20.838Z,1.40
2023-03-15T01:31:49.069Z,1.40
2023-03-15T01:34:18.004Z,1.40
2023-03-15T01:36:46.168Z,1.50
2023-03-15T01:39:14.961Z,1.80
2023-03-15T01:44:18.477Z,1.30
2023-03-15T01:46:47.929Z,1.80
2023-03-15T01:49:32.014Z,1.90
2023-03-15T01:52:09.917Z,1.30
2023-03-15T01:54:56.197Z,1.60
2023-03-15T01:57:28.893Z,1.40
2023-03-15T02:00:08.033Z,1.30
2023-03-15T02:02:46.620Z,1.70
2023-03-15T02:05:22.489Z,1.40
2023-03-15T02:07:51.174Z,1.60
2023-03-15T02:10:26.001Z,1.20
2023-03-15T02:12:55.621Z,1.30
2023-03-15T02:15:23.987Z,1.20
2023-03-15T02:17:52.263Z,1.30
2023-03-15T02:21:02.010Z,1.70
2023-03-15T02:23:32.122Z,1.60
2023-03-15T02:26:09.619Z,1.60
2023-03-15T02:28:38.214Z,1.20
2023-03-15T02:31:06.574Z,1.10
2023-03-15T02:33:43.682Z,1.90
2023-03-15T02:36:23.900Z,1.20
2023-03-15T02:38:53.210Z,1.60
2023-03-15T02:41:27.014Z,1.40
2023-03-15T02:43:59.795Z,1.20
2023-03-15T02:46:28.380Z,1.50
2023-03-15T02:48:57.067Z,1.40
2023-03-15T02:51:28.825Z,1.40
2023-03-15T02:53:58.527Z,1.10
2023-03-15T02:56:27.109Z,1.50
2023-03-15T02:58:55.284Z,1.90
2023-03-15T03:01:23.938Z,1.30
2023-03-15T03:03:52.550Z,1.30
2023-03-15T03:06:21.545Z,1.40
2023-03-15T03:08:49.917Z,1.50
2023-03-15T03:11:19.831Z,1.50
2023-03-15T03:13:48.219Z,1.10
2023-03-15T03:16:16.432Z,1.40
2023-03-15T03:18:44.864Z,1.30
2023-03-15T03:21:14.976Z,1.20
2023-03-15T03:23:46.456Z,1.30
2023-03-15T03:26:17.163Z,1.50
2023-03-15T03:28:47.804Z,1.20
2023-03-15T03:31:21.638Z,1.50
2023-03-15T03:33:50.475Z,2.00
2023-03-15T03:36:19.060Z,1.40
2023-03-15T03:38:47.544Z,1.70
2023-03-15T03:41:16.228Z,1.60
2023-03-15T03:43:44.800Z,1.20
2023-03-15T03:46:13.248Z,1.30
2023-03-15T03:48:45.650Z,1.20
2023-03-15T03:51:13.823Z,1.50
2023-03-15T03:53:42.103Z,1.50
2023-03-15T03:56:10.988Z,1.70
2023-03-15T03:58:39.465Z,1.40
2023-03-15T04:01:18.597Z,1.30
2023-03-15T04:03:51.480Z,1.70
2023-03-15T04:06:23.337Z,1.50
2023-03-15T04:08:51.720Z,1.00
2023-03-15T04:11:42.806Z,1.40
2023-03-15T04:14:13.040Z,1.10
2023-03-15T04:16:43.159Z,1.30
2023-03-15T04:19:13.378Z,1.20
2023-03-15T04:21:47.680Z,1.20
2023-03-15T04:24:22.909Z,1.30
2023-03-15T04:27:05.628Z,1.40
2023-03-15T04:29:53.992Z,1.90
2023-03-15T04:32:48.400Z,2.10
2023-03-15T04:35:22.801Z,1.50
2023-03-15T04:38:11.356Z,1.20
2023-03-15T04:40:58.469Z,1.30
2023-03-15T04:43:37.812Z,1.40
2023-03-15T04:46:41.330Z,1.80
2023-03-15T04:49:26.475Z,1.70
2023-03-15T04:52:17.793Z,1.40
2023-03-15T04:55:15.261Z,2.10
2023-03-15T04:58:00.011Z,2.00
2023-03-15T05:00:54.468Z,1.60
2023-03-15T05:03:41.408Z,1.40
2023-03-15T05:06:18.801Z,1.90
2023-03-15T05:09:07.755Z,1.70
2023-03-15T05:11:52.934Z,1.50
2023-03-15T05:14:52.181Z,1.80
2023-03-15T05:20:15.069Z,1.50
2023-03-15T05:22:53.308Z,2.30
2023-03-15T05:25:40.422Z,1.70
2023-03-15T05:28:45.475Z,1.80
2023-03-15T05:31:22.804Z,2.10
2023-03-15T05:34:12.305Z,1.60
2023-03-15T05:36:59.840Z,2.00
2023-03-15T05:40:08.196Z,1.50
2023-03-15T05:43:00.105Z,1.40
2023-03-15T05:48:25.818Z,1.20
2023-03-15T05:51:10.784Z,1.40
2023-03-15T05:53:57.792Z,1.50
2023-03-15T05:56:54.225Z,1.50
2023-03-15T05:59:34.256Z,1.30
2023-03-15T06:02:34.702Z,1.70
2023-03-15T06:05:14.651Z,1.50
2023-03-15T06:07:42.846Z,1.60
2023-03-15T06:10:12.120Z,2.20
2023-03-15T06:12:40.591Z,1.90
2023-03-15T06:15:09.288Z,1.50
2023-03-15T06:17:37.459Z,1.50
2023-03-15T06:20:06.345Z,1.60
2023-03-15T06:22:35.542Z,1.70
2023-03-15T06:25:10.264Z,1.90
2023-03-15T06:27:38.937Z,1.80
2023-03-15T06:30:08.579Z,1.50
2023-03-15T06:32:36.788Z,1.40
2023-03-15T06:35:05.928Z,1.50
2023-03-15T06:37:36.150Z,1.80
2023-03-15T06:40:09.305Z,2.00
2023-03-15T06:42:38.442Z,1.00
2023-03-15T06:45:08.656Z,1.70
2023-03-15T06:47:37.335Z,1.60
2023-03-15T06:50:06.533Z,1.90
2023-03-15T06:52:34.604Z,1.40
2023-03-15T06:55:02.977Z,1.90
2023-03-15T06:57:31.255Z,1.70
2023-03-15T06:59:59.321Z,1.80
2023-03-15T07:02:27.527Z,1.80
2023-03-15T07:04:55.975Z,1.50
2023-03-15T07:07:24.148Z,2.10
2023-03-15T07:09:54.282Z,2.00
2023-03-15T07:12:23.464Z,3.00
2023-03-15T07:14:51.643Z,2.70
2023-03-15T07:17:19.807Z,3.50
2023-03-15T07:19:56.344Z,2.50
2023-03-15T07:22:24.987Z,2.30
2023-03-15T07:24:53.132Z,2.10
2023-03-15T07:27:21.310Z,3.90
2023-03-15T07:29:49.477Z,2.10
2023-03-15T07:32:18.311Z,2.10
2023-03-15T07:34:46.540Z,1.90
2023-03-15T07:37:14.814Z,2.30
2023-03-15T07:39:43.398Z,2.10
2023-03-15T07:42:12.062Z,1.40
2023-03-15T07:44:42.297Z,2.50
2023-03-15T07:47:11.188Z,1.40
2023-03-15T07:49:39.356Z,1.90
2023-03-15T07:52:08.554Z,2.60
2023-03-15T07:54:36.928Z,6.00
2023-03-15T07:57:05.409Z,2.10
2023-03-15T07:59:33.890Z,6.50
2023-03-15T08:02:03.191Z,5.60
2023-03-15T08:04:31.772Z,3.00
2023-03-15T08:07:00.052Z,1.80
2023-03-15T08:09:28.316Z,2.30
2023-03-15T08:11:56.492Z,2.40
2023-03-15T08:14:25.071Z,1.90
2023-03-15T08:16:53.249Z,3.00
2023-03-15T08:19:22.373Z,1.90
2023-03-15T08:21:54.044Z,1.90
2023-03-15T08:24:22.266Z,1.60
2023-03-15T08:26:51.472Z,2.10
2023-03-15T08:29:19.635Z,1.80
2023-03-15T08:31:47.823Z,2.00
2023-03-15T08:34:16.505Z,1.80
2023-03-15T08:36:47.700Z,1.90
2023-03-15T08:39:16.334Z,2.40
2023-03-15T08:41:45.723Z,2.20
2023-03-15T08:44:14.113Z,2.20
2023-03-15T08:46:42.415Z,1.70
2023-03-15T08:49:10.652Z,2.10
2023-03-15T08:51:38.823Z,2.70
2023-03-15T08:54:07.710Z,1.70
2023-03-15T08:56:35.830Z,2.10
2023-03-15T08:59:04.059Z,1.60
2023-03-15T09:01:32.221Z,1.90
2023-03-15T09:04:01.431Z,1.90
2023-03-15T09:06:29.696Z,2.20
2023-03-15T09:08:57.862Z,2.30
2023-03-15T09:11:26.136Z,1.90
2023-03-15T09:13:54.206Z,1.50
2023-03-15T09:16:22.438Z,2.30
2023-03-15T09:18:50.866Z,1.90
2023-03-15T09:21:19.138Z,4.50
2023-03-15T09:23:47.306Z,3.80
2023-03-15T09:26:17.017Z,2.70
2023-03-15T09:28:45.290Z,3.40
2023-03-15T09:31:13.600Z,2.80
2023-03-15T09:33:41.944Z,3.10
2023-03-15T09:36:10.119Z,3.70
2023-03-15T09:38:38.496Z,2.00
2023-03-15T09:41:06.669Z,5.20
2023-03-15T09:43:57.122Z,3.10
2023-03-15T09:46:35.851Z,2.40
2023-03-15T09:49:15.328Z,2.30
2023-03-15T09:51:58.217Z,2.50
2023-03-15T09:54:36.524Z,2.90
2023-03-15T09:57:32.042Z,3.40
2023-03-15T10:00:01.598Z,2.90
2023-03-15T10:02:31.068Z,4.10
2023-03-15T10:05:06.101Z,2.30
2023-03-15T10:07:35.834Z,2.30
2023-03-15T10:10:09.487Z,1.70
2023-03-15T10:12:42.191Z,1.90
2023-03-15T10:15:16.198Z,2.20
2023-03-15T10:17:59.726Z,1.70
2023-03-15T10:20:41.808Z,2.00
2023-03-15T10:23:18.914Z,2.40
2023-03-15T10:25:49.744Z,2.20
2023-03-15T10:28:28.800Z,2.30
2023-03-15T10:31:00.452Z,2.50
2023-03-15T10:33:34.555Z,2.10
2023-03-15T10:36:12.651Z,2.00
2023-03-15T10:38:42.151Z,2.40
2023-03-15T10:41:15.238Z,2.20
2023-03-15T10:43:57.326Z,2.00
2023-03-15T10:46:25.527Z,1.90
2023-03-15T10:49:00.682Z,1.80
2023-03-15T10:51:33.922Z,3.40
2023-03-15T10:54:24.018Z,1.60
2023-03-15T10:57:00.118Z,2.40
2023-03-15T10:59:31.108Z,2.00
2023-03-15T11:02:25.695Z,1.60
2023-03-15T11:05:12.518Z,1.60
2023-03-15T11:07:57.584Z,1.80
2023-03-15T11:10:28.182Z,1.80
2023-03-15T11:13:11.428Z,4.10
2023-03-15T11:15:41.548Z,6.30
2023-03-15T11:18:18.420Z,20.90
2023-03-15T11:20:46.904Z,4.30
2023-03-15T11:23:18.845Z,2.80
2023-03-15T11:25:47.040Z,2.50
2023-03-15T11:28:27.599Z,14.00
2023-03-15T11:30:59.941Z,6.10
2023-03-15T11:33:48.606Z,2.30
2023-03-15T11:36:20.512Z,7.70
2023-03-15T11:38:48.968Z,15.80
2023-03-15T11:41:23.245Z,2.70
2023-03-15T11:44:03.075Z,2.00
2023-03-15T11:46:42.968Z,2.60
2023-03-15T11:49:24.249Z,3.30
2023-03-15T11:51:56.189Z,2.40
2023-03-15T11:54:29.273Z,2.50
2023-03-15T11:57:03.505Z,2.70
2023-03-15T11:59:39.263Z,2.20
2023-03-15T12:02:10.634Z,1.90
2023-03-15T12:04:42.876Z,2.10
2023-03-15T12:07:20.266Z,1.80
2023-03-15T12:09:49.254Z,1.90
2023-03-15T12:12:26.242Z,2.40
2023-03-15T12:15:19.438Z,6.10
2023-03-15T12:18:00.604Z,3.50
2023-03-15T12:20:39.669Z,8.20
2023-03-15T12:23:17.189Z,2.50
2023-03-15T12:26:03.812Z,2.00
2023-03-15T12:28:36.163Z,19.90
2023-03-15T12:31:13.319Z,3.80
2023-03-15T12:33:57.871Z,1.80
2023-03-15T12:36:36.112Z,2.00
2023-03-15T12:39:16.674Z,1.80
2023-03-15T12:44:27.043Z,3.50
2023-03-15T12:46:56.775Z,1.70
2023-03-15T12:49:24.929Z,1.70
2023-03-15T12:52:17.882Z,1.90
2023-03-15T12:54:52.363Z,1.60
2023-03-15T12:57:30.077Z,2.00
2023-03-15T13:00:15.340Z,1.70
2023-03-15T13:02:53.055Z,1.80
2023-03-15T13:05:30.429Z,1.80
2023-03-15T13:08:24.729Z,1.90
2023-03-15T13:11:12.066Z,2.10
2023-03-15T13:14:08.282Z,1.80
2023-03-15T13:16:51.874Z,1.60
2023-03-15T13:19:27.566Z,2.30
2023-03-15T13:22:14.478Z,5.90
2023-03-15T13:25:10.086Z,1.90
2023-03-15T13:27:57.309Z,1.80
2023-03-15T13:30:30.855Z,1.90
2023-03-15T13:33:28.879Z,1.30
2023-03-15T13:36:02.411Z,1.70
2023-03-15T13:38:32.801Z,1.90
2023-03-15T13:41:03.880Z,1.20
2023-03-15T13:43:37.643Z,1.90
2023-03-15T13:46:06.206Z,1.60
2023-03-15T13:48:37.164Z,1.80
2023-03-15T13:51:09.621Z,1.00
2023-03-15T13:53:49.588Z,1.10
2023-03-15T13:56:21.716Z,1.50
2023-03-15T13:58:50.335Z,2.30
2023-03-15T14:01:18.948Z,2.10
2023-03-15T14:03:49.837Z,1.10
2023-03-15T14:06:23.065Z,1.60
2023-03-15T14:08:54.874Z,1.60
2023-03-15T14:11:25.942Z,1.30
2023-03-15T14:14:00.641Z,1.80
2023-03-15T14:16:53.610Z,1.30
2023-03-15T14:19:31.625Z,2.20
2023-03-15T14:22:05.547Z,1.70
2023-03-15T14:24:39.031Z,1.90
2023-03-15T14:27:22.181Z,1.30
2023-03-15T14:29:58.420Z,2.00
2023-03-15T14:32:29.058Z,1.40
2023-03-15T14:35:19.033Z,2.10
2023-03-15T14:37:47.608Z,2.20
2023-03-15T14:40:29.810Z,2.60
2023-03-15T14:42:57.981Z,2.90
2023-03-15T14:45:27.630Z,1.90
2023-03-15T14:48:01.922Z,1.70
2023-03-15T14:50:34.796Z,1.30
2023-03-15T14:53:03.674Z,3.60
2023-03-15T14:55:35.073Z,5.10
2023-03-15T14:58:14.971Z,8.20
2023-03-15T15:00:45.121Z,9.60
2023-03-15T15:03:31.589Z,6.80
2023-03-15T15:06:01.196Z,3.70
2023-03-15T15:08:31.729Z,4.50
2023-03-15T15:11:00.312Z,6.80
2023-03-15T15:13:30.599Z,5.80
2023-03-15T15:15:58.812Z,2.80
2023-03-15T15:18:29.528Z,3.90
2023-03-15T15:21:00.384Z,12.30
2023-03-15T15:23:39.586Z,5.20
2023-03-15T15:26:28.973Z,7.20
2023-03-15T15:28:58.076Z,4.50
2023-03-15T15:31:28.445Z,3.30
2023-03-15T15:33:57.182Z,11.10
2023-03-15T15:36:42.966Z,9.30
2023-03-15T15:39:18.802Z,7.20
2023-03-15T15:41:46.977Z,4.80
2023-03-15T15:44:20.474Z,5.60
2023-03-15T15:46:48.644Z,5.30
2023-03-15T15:49:17.000Z,2.00
2023-03-15T15:51:47.041Z,1.70
2023-03-15T15:54:20.511Z,1.50
2023-03-15T15:56:51.475Z,2.10
2023-03-15T15:59:20.705Z,1.30
2023-03-15T16:02:00.658Z,10.10
2023-03-15T16:04:31.145Z,1.60
2023-03-15T16:07:01.997Z,1.60
2023-03-15T16:09:32.400Z,2.80
2023-03-15T16:12:00.577Z,1.20
2023-03-15T16:14:28.861Z,1.00
2023-03-15T16:16:57.018Z,1.30
2023-03-15T16:19:25.189Z,1.20
2023-03-15T16:21:54.693Z,4.00
2023-03-15T16:24:35.990Z,4.10
2023-03-15T16:27:06.949Z,3.80
2023-03-15T16:29:39.088Z,4.80
2023-03-15T16:32:17.945Z,4.40
2023-03-15T16:34:52.335Z,4.10
2023-03-15T16:37:24.900Z,4.90
2023-03-15T16:39:55.970Z,4.20
2023-03-15T16:42:25.859Z,5.80
2023-03-15T16:44:54.121Z,4.60
2023-03-15T16:47:22.307Z,2.60
2023-03-15T16:49:50.780Z,2.50
2023-03-15T16:52:18.943Z,2.70
2023-03-15T16:54:48.848Z,3.10
2023-03-15T16:57:22.037Z,2.20
2023-03-15T16:59:51.062Z,2.30
2023-03-15T17:02:25.775Z,2.30
2023-03-15T17:04:54.152Z,2.40
2023-03-15T17:07:27.952Z,2.50
2023-03-15T17:09:56.218Z,1.90
2023-03-15T17:12:28.490Z,1.80
2023-03-15T17:14:58.930Z,1.70
2023-03-15T17:17:28.671Z,1.40
2023-03-15T17:19:57.728Z,1.80
2023-03-15T17:22:26.217Z,1.70
2023-03-15T17:24:54.574Z,1.50
2023-03-15T17:27:33.097Z,1.50
2023-03-15T17:30:01.548Z,1.50
2023-03-15T17:32:29.769Z,2.60
2023-03-15T17:34:59.228Z,1.90
2023-03-15T17:37:35.836Z,2.00
2023-03-15T17:40:12.572Z,1.90
2023-03-15T17:42:41.170Z,3.00
2023-03-15T17:45:18.247Z,2.70
2023-03-15T17:47:47.725Z,2.30
2023-03-15T17:50:17.111Z,3.10
2023-03-15T17:52:46.864Z,3.00
2023-03-15T17:55:16.965Z,3.10
2023-03-15T17:57:54.116Z,4.00
2023-03-15T18:00:25.053Z,3.80
2023-03-15T18:02:56.640Z,4.00
2023-03-15T18:05:26.894Z,3.70
2023-03-15T18:08:00.057Z,3.10
2023-03-15T18:10:33.771Z,3.30
2023-03-15T18:13:02.594Z,3.20
2023-03-15T18:15:30.825Z,3.20
2023-03-15T18:17:58.890Z,2.70
2023-03-15T18:20:28.194Z,2.90
2023-03-15T18:22:56.467Z,3.10
2023-03-15T18:25:28.534Z,3.00
2023-03-15T18:27:56.711Z,3.30
2023-03-15T18:30:27.433Z,3.60
2023-03-15T18:35:27.423Z,3.40
2023-03-15T18:37:57.590Z,3.60
2023-03-15T18:40:29.383Z,3.40
2023-03-15T18:42:58.336Z,4.10
2023-03-15T18:45:30.088Z,3.60
2023-03-15T18:48:02.221Z,3.00
2023-03-15T18:50:30.942Z,3.00
2023-03-15T18:52:59.432Z,3.20
2023-03-15T18:55:27.586Z,3.10
2023-03-15T18:57:55.972Z,3.20
2023-03-15T19:00:27.616Z,2.70
2023-03-15T19:02:58.831Z,3.00
2023-03-15T19:05:28.368Z,3.40
2023-03-15T19:07:56.945Z,3.90
2023-03-15T19:10:26.058Z,12.10
2023-03-15T19:12:54.632Z,9.50
2023-03-15T19:15:23.656Z,11.20
2023-03-15T19:17:56.739Z,8.90
2023-03-15T19:20:25.083Z,7.60
2023-03-15T19:22:53.396Z,9.10
2023-03-15T19:25:21.830Z,17.10
2023-03-15T19:27:50.013Z,28.90
2023-03-15T19:30:21.306Z,18.90
2023-03-15T19:32:50.451Z,13.20
2023-03-15T19:35:20.251Z,15.40
2023-03-15T19:37:49.145Z,14.60
2023-03-15T19:40:18.659Z,21.00
2023-03-15T19:42:48.833Z,17.50
2023-03-15T19:45:18.060Z,12.70
2023-03-15T19:47:47.210Z,9.50
2023-03-15T19:50:16.354Z,16.80
2023-03-15T19:52:47.705Z,14.30
2023-03-15T19:55:18.159Z,10.00
2023-03-15T20:00:16.464Z,7.90
2023-03-15T20:02:45.305Z,6.80
2023-03-15T20:05:16.958Z,8.50
2023-03-15T20:07:46.366Z,7.70
2023-03-15T20:10:14.962Z,6.80
2023-03-15T20:12:43.215Z,8.10
2023-03-15T20:15:13.214Z,8.10
2023-03-15T20:17:42.133Z,7.30
2023-03-15T20:20:11.588Z,7.70
2023-03-15T20:22:41.613Z,7.20
2023-03-15T20:25:18.200Z,7.10
2023-03-15T20:27:46.699Z,6.20
2023-03-15T20:30:16.399Z,7.20
2023-03-15T20:32:44.955Z,5.80
2023-03-15T20:35:14.052Z,5.80
2023-03-15T20:37:43.125Z,6.10
2023-03-15T20:40:13.478Z,6.40
2023-03-15T20:42:42.591Z,6.90
2023-03-15T20:45:12.581Z,6.80
2023-03-15T20:47:41.511Z,7.30
2023-03-15T20:50:11.544Z,7.40
2023-03-15T20:52:41.003Z,6.80
2023-03-15T20:55:10.814Z,7.20
2023-03-15T20:57:41.460Z,7.00
2023-03-15T21:00:20.824Z,8.10
2023-03-15T21:02:49.278Z,6.90
2023-03-15T21:05:17.951Z,6.90
2023-03-15T21:07:46.318Z,6.40
2023-03-15T21:10:14.907Z,6.20
2023-03-15T21:12:44.258Z,6.50
2023-03-15T21:15:17.666Z,6.40
2023-03-15T21:17:49.017Z,7.90
2023-03-15T21:20:18.252Z,7.60
2023-03-15T21:22:46.612Z,6.30
2023-03-15T21:25:14.892Z,5.30
2023-03-15T21:27:43.677Z,5.20
2023-03-15T21:30:14.112Z,5.90
2023-03-15T21:32:43.268Z,4.40
2023-03-15T21:35:12.694Z,5.20
2023-03-15T21:37:40.768Z,5.90
2023-03-15T21:40:11.275Z,5.80
2023-03-15T21:42:39.986Z,4.80
2023-03-15T21:45:09.398Z,4.20
2023-03-15T21:47:37.648Z,4.70
2023-03-15T21:50:06.508Z,3.90
2023-03-15T21:52:34.603Z,5.00
2023-03-15T21:55:02.778Z,5.00
2023-03-15T21:57:33.942Z,4.90
2023-03-15T22:00:02.436Z,5.20
2023-03-15T22:02:39.903Z,4.80
2023-03-15T22:05:09.814Z,4.00
2023-03-15T22:07:39.191Z,5.30
2023-03-15T22:10:09.918Z,4.80
2023-03-15T22:12:38.195Z,5.80
2023-03-15T22:15:07.898Z,4.30
2023-03-15T22:17:36.499Z,4.70
2023-03-15T22:20:16.818Z,5.00
2023-03-15T22:22:45.892Z,6.60
2023-03-15T22:25:14.457Z,5.20
2023-03-15T22:27:42.810Z,7.60
2023-03-15T22:30:17.902Z,4.70
2023-03-15T22:32:46.116Z,5.20
2023-03-15T22:35:16.339Z,5.60
2023-03-15T22:37:44.632Z,4.70
2023-03-15T22:40:16.677Z,5.10
2023-03-15T22:42:47.052Z,4.80
2023-03-15T22:47:43.559Z,4.50
2023-03-15T22:50:13.576Z,5.00
2023-03-15T22:52:41.894Z,5.00
2023-03-15T22:55:10.933Z,5.40
2023-03-15T22:57:39.216Z,6.10
2023-03-15T23:00:16.345Z,5.50
2023-03-15T23:02:44.977Z,5.40
2023-03-15T23:05:13.782Z,6.10
2023-03-15T23:07:42.160Z,6.50
2023-03-15T23:10:11.642Z,6.50
2023-03-15T23:12:39.824Z,6.90
2023-03-15T23:15:09.128Z,6.50
2023-03-15T23:17:37.504Z,7.00
2023-03-15T23:20:07.527Z,5.70
2023-03-15T23:22:35.889Z,5.70
2023-03-15T23:25:04.578Z,6.00
2023-03-15T23:27:32.756Z,4.60
2023-03-15T23:30:01.142Z,4.20
2023-03-15T23:32:29.623Z,5.00
2023-03-15T23:34:57.978Z,5.80
2023-03-15T23:37:26.150Z,5.50
2023-03-15T23:39:54.529Z,6.10
2023-03-15T23:42:26.057Z,5.40
2023-03-15T23:44:55.610Z,6.20
2023-03-15T23:47:25.086Z,6.70
2023-03-15T23:49:53.364Z,6.60
2023-03-15T23:52:25.469Z,6.10
2023-03-15T23:54:54.242Z,5.90
2023-03-15T23:57:22.902Z,5.00
2023-03-15T23:59:51.290Z,4.40
